createdAt,value
2018-03-26T09:39:48.442Z,9.80
2018-03-26T09:42:16.572Z,10.00
2018-03-26T09:44:44.695Z,10.10
2018-03-26T09:47:12.840Z,10.20
2018-03-26T09:49:40.995Z,10.40
2018-03-26T09:52:09.112Z,10.50
2018-03-26T09:54:37.237Z,10.60
2018-03-26T09:57:05.358Z,10.70
2018-03-26T09:59:33.469Z,10.70
2018-03-26T10:02:01.675Z,10.70
2018-03-26T10:04:29.886Z,10.60
2018-03-26T10:06:58.133Z,10.60
2018-03-26T10:09:26.351Z,10.70
2018-03-26T10:11:54.583Z,10.80
2018-03-26T10:14:22.823Z,10.90
2018-03-26T10:16:51.740Z,11.00
2018-03-26T10:19:19.875Z,11.10
2018-03-26T10:21:47.992Z,11.20
2018-03-26T10:24:16.109Z,11.40
2018-03-26T10:26:44.577Z,11.40
2018-03-26T10:29:12.712Z,11.50
2018-03-26T10:31:40.826Z,11.60
2018-03-26T10:34:08.922Z,11.70
2018-03-26T10:36:37.044Z,11.70
2018-03-26T10:39:05.178Z,11.80
2018-03-26T10:41:33.327Z,11.80
2018-03-26T10:44:01.468Z,11.80
2018-03-26T10:46:29.587Z,11.90
2018-03-26T10:48:58.447Z,11.90
2018-03-26T10:51:26.769Z,12.00
2018-03-26T10:53:54.921Z,12.10
2018-03-26T10:56:23.039Z,12.10
2018-03-26T10:58:51.158Z,12.10
2018-03-26T11:01:19.257Z,12.10
2018-03-26T11:03:47.701Z,12.10
2018-03-26T11:06:15.811Z,12.00
2018-03-26T11:08:43.939Z,12.00
2018-03-26T11:11:12.061Z,12.00
2018-03-26T11:13:40.171Z,12.00
2018-03-26T11:16:08.311Z,12.00
2018-03-26T11:18:36.441Z,12.10
2018-03-26T11:21:05.134Z,12.20
2018-03-26T11:23:33.273Z,12.30
2018-03-26T11:26:01.415Z,12.40
2018-03-26T11:28:29.545Z,12.60
2018-03-26T11:30:57.703Z,12.70
2018-03-26T11:33:25.836Z,12.80
2018-03-26T11:35:53.967Z,12.90
2018-03-26T11:38:22.071Z,12.90
2018-03-26T11:40:50.205Z,13.00
2018-03-26T11:43:18.338Z,13.10
2018-03-26T11:45:46.461Z,13.20
2018-03-26T11:48:14.591Z,13.30
2018-03-26T11:50:42.716Z,13.30
2018-03-26T11:53:11.636Z,13.30
2018-03-26T11:55:39.764Z,13.30
2018-03-26T11:58:07.881Z,13.30
2018-03-26T12:00:35.978Z,13.30
2018-03-26T12:03:04.104Z,13.30
2018-03-26T12:05:32.994Z,13.30
2018-03-26T12:08:01.111Z,13.30
2018-03-26T12:10:29.848Z,13.30
2018-03-26T12:12:57.976Z,13.20
2018-03-26T12:15:26.130Z,13.10
2018-03-26T12:17:54.230Z,13.00
2018-03-26T12:20:40.160Z,12.90
2018-03-26T12:26:18.756Z,12.60
2018-03-26T12:29:04.419Z,12.40
2018-03-26T12:31:32.546Z,12.20
2018-03-26T12:34:18.227Z,12.10
2018-03-26T12:36:46.373Z,12.00
2018-03-26T12:39:14.458Z,11.90
2018-03-26T12:41:42.593Z,11.80
2018-03-26T12:44:10.715Z,11.60
2018-03-26T12:46:45.464Z,11.50
2018-03-26T12:49:13.685Z,11.40
2018-03-26T12:51:59.547Z,11.30
2018-03-26T12:54:27.679Z,11.20
2018-03-26T13:00:07.348Z,11.10
2018-03-26T13:02:35.465Z,11.10
2018-03-26T13:05:03.615Z,11.00
2018-03-26T13:07:31.792Z,11.00
2018-03-26T13:09:59.948Z,11.00
2018-03-26T13:12:28.089Z,11.00
2018-03-26T13:14:56.821Z,11.00
2018-03-26T13:17:24.937Z,11.00
2018-03-26T13:19:53.152Z,11.10
2018-03-26T13:22:21.329Z,11.10
2018-03-26T13:24:49.584Z,11.10
2018-03-26T13:27:17.896Z,11.10
2018-03-26T13:29:46.049Z,11.10
2018-03-26T13:32:14.942Z,11.00
2018-03-26T13:34:43.082Z,10.90
2018-03-26T13:37:11.194Z,10.80
2018-03-26T13:39:39.332Z,10.70
2018-03-26T13:42:08.230Z,10.60
2018-03-26T13:44:36.517Z,10.50
2018-03-26T13:47:04.747Z,10.40
2018-03-26T13:49:33.011Z,10.30
2018-03-26T13:52:01.150Z,10.20
2018-03-26T13:54:29.256Z,10.10
2018-03-26T13:56:57.977Z,10.00
2018-03-26T13:59:26.350Z,10.00
2018-03-26T14:01:54.474Z,10.00
2018-03-26T14:04:22.637Z,10.00
2018-03-26T14:06:50.777Z,10.00
2018-03-26T14:12:50.077Z,10.00
2018-03-26T14:15:36.339Z,10.00
2018-03-26T14:18:09.426Z,10.00
2018-03-26T14:20:37.617Z,10.00
2018-03-26T14:23:05.727Z,10.00
2018-03-26T14:25:33.845Z,10.00
2018-03-26T14:28:02.020Z,10.00
2018-03-26T14:30:30.204Z,10.10
2018-03-26T14:32:58.509Z,10.10
2018-03-26T14:38:23.198Z,10.20
2018-03-26T14:40:51.306Z,10.20
2018-03-26T14:43:19.879Z,10.20
2018-03-26T14:45:48.016Z,10.20
2018-03-26T14:48:16.156Z,10.20
2018-03-26T14:50:44.266Z,10.30
2018-03-26T14:53:12.387Z,10.30
2018-03-26T14:55:41.282Z,10.30
2018-03-26T14:58:09.426Z,10.20
2018-03-26T15:00:37.572Z,10.20
2018-03-26T15:03:05.709Z,10.10
2018-03-26T15:05:33.830Z,10.10
2018-03-26T15:08:01.961Z,10.00
2018-03-26T15:10:30.104Z,10.00
2018-03-26T15:12:58.290Z,10.00
2018-03-26T15:15:26.533Z,10.00
2018-03-26T15:17:54.987Z,10.00
2018-03-26T15:20:23.964Z,10.00
2018-03-26T15:22:52.007Z,10.00
2018-03-26T15:25:20.183Z,10.00
2018-03-26T15:27:48.262Z,10.10
2018-03-26T15:30:16.740Z,10.10
2018-03-26T15:32:45.639Z,10.20
2018-03-26T15:35:14.577Z,10.20
2018-03-26T15:37:43.165Z,10.20
2018-03-26T15:40:11.271Z,10.30
2018-03-26T15:42:39.406Z,10.40
2018-03-26T15:45:07.601Z,10.50
2018-03-26T15:47:36.327Z,10.60
2018-03-26T15:50:04.430Z,10.80
2018-03-26T15:52:32.564Z,10.90
2018-03-26T15:55:01.450Z,10.90
2018-03-26T15:57:29.612Z,10.90
2018-03-26T15:59:57.811Z,11.00
2018-03-26T16:02:31.343Z,10.90
2018-03-26T16:04:59.480Z,10.90
2018-03-26T16:07:27.597Z,10.90
2018-03-26T16:09:56.075Z,10.90
2018-03-26T16:12:24.234Z,10.80
2018-03-26T16:14:52.380Z,10.80
2018-03-26T16:17:22.896Z,10.70
2018-03-26T16:19:51.333Z,10.70
2018-03-26T16:22:19.452Z,10.60
2018-03-26T16:24:47.885Z,10.60
2018-03-26T16:27:16.325Z,10.50
2018-03-26T16:29:44.482Z,10.50
2018-03-26T16:32:12.888Z,10.50
2018-03-26T16:34:41.007Z,10.40
2018-03-26T16:37:09.137Z,10.40
2018-03-26T16:39:37.287Z,10.30
2018-03-26T16:45:24.828Z,10.10
2018-03-26T16:50:54.959Z,9.90
2018-03-26T16:53:23.091Z,9.80
2018-03-26T16:55:51.209Z,9.70
2018-03-26T16:58:19.350Z,9.60
2018-03-26T17:00:47.568Z,9.50
2018-03-26T17:03:15.848Z,9.40
2018-03-26T17:05:44.005Z,9.30
2018-03-26T17:08:12.625Z,9.20
2018-03-26T17:10:40.754Z,9.10
2018-03-26T17:13:08.877Z,8.90
2018-03-26T17:15:37.110Z,8.60
2018-03-26T17:18:05.300Z,8.40
2018-03-26T17:20:33.419Z,8.20
2018-03-26T17:23:01.592Z,7.90
2018-03-26T17:25:30.380Z,7.80
2018-03-26T17:27:58.710Z,7.60
2018-03-26T17:30:26.874Z,7.50
2018-03-26T17:32:55.044Z,7.40
2018-03-26T17:35:23.428Z,7.30
2018-03-26T17:37:51.562Z,7.20
2018-03-26T17:40:19.660Z,7.10
2018-03-26T17:42:47.786Z,7.00
2018-03-26T17:45:15.985Z,6.80
2018-03-26T17:47:44.084Z,6.50
2018-03-26T17:50:12.208Z,6.20
2018-03-26T17:52:40.314Z,5.90
2018-03-26T17:55:08.443Z,5.70
2018-03-26T17:57:36.544Z,5.60
2018-03-26T18:00:04.656Z,5.60
2018-03-26T18:02:32.809Z,5.60
2018-03-26T18:05:00.969Z,5.60
2018-03-26T18:07:29.706Z,5.70
2018-03-26T18:09:57.819Z,5.70
2018-03-26T18:12:26.003Z,5.70
2018-03-26T18:14:54.123Z,5.70
2018-03-26T18:17:26.104Z,5.70
2018-03-26T18:19:54.235Z,5.70
2018-03-26T18:22:22.951Z,5.70
2018-03-26T18:24:51.891Z,5.70
2018-03-26T18:27:20.133Z,5.70
2018-03-26T18:29:48.308Z,5.70
2018-03-26T18:32:16.502Z,5.80
2018-03-26T18:34:44.791Z,5.80
2018-03-26T18:37:13.445Z,5.70
2018-03-26T18:39:49.455Z,5.70
2018-03-26T18:42:18.595Z,5.70
2018-03-26T18:44:48.697Z,5.60
2018-03-26T18:47:17.694Z,5.60
2018-03-26T18:49:46.922Z,5.60
2018-03-26T18:52:15.042Z,5.60
2018-03-26T18:54:43.595Z,5.60
2018-03-26T18:57:13.350Z,5.60
2018-03-26T18:59:42.074Z,5.60
2018-03-26T19:02:10.274Z,5.60
2018-03-26T19:04:38.441Z,5.60
2018-03-26T19:07:10.283Z,5.60
2018-03-26T19:09:38.482Z,5.60
2018-03-26T19:12:06.626Z,5.60
2018-03-26T19:14:35.445Z,5.70
2018-03-26T19:17:03.655Z,5.70
2018-03-26T19:19:40.132Z,5.70
2018-03-26T19:22:09.020Z,5.70
2018-03-26T19:24:37.972Z,5.70
2018-03-26T19:27:06.215Z,5.70
2018-03-26T19:29:34.386Z,5.60
2018-03-26T19:32:02.537Z,5.60
2018-03-26T19:34:31.431Z,5.60
2018-03-26T19:36:59.549Z,5.40
2018-03-26T19:39:32.769Z,5.30
2018-03-26T19:42:00.942Z,5.20
2018-03-26T19:44:29.894Z,5.10
2018-03-26T19:46:58.717Z,5.10
2018-03-26T19:49:27.813Z,5.10
2018-03-26T19:51:56.011Z,5.20
2018-03-26T19:54:24.155Z,5.20
2018-03-26T19:56:53.072Z,5.20
2018-03-26T19:59:21.979Z,5.30
2018-03-26T20:01:51.054Z,5.30
2018-03-26T20:04:19.217Z,5.30
2018-03-26T20:06:47.886Z,5.30
2018-03-26T20:09:16.090Z,5.30
2018-03-26T20:11:45.054Z,5.30
2018-03-26T20:14:13.206Z,5.30
2018-03-26T20:16:41.332Z,5.30
2018-03-26T20:19:10.314Z,5.30
2018-03-26T20:21:38.432Z,5.30
2018-03-26T20:24:06.677Z,5.30
2018-03-26T20:26:35.197Z,5.30
2018-03-26T20:29:03.968Z,5.30
2018-03-26T20:31:32.108Z,5.30
2018-03-26T20:34:00.666Z,5.30
2018-03-26T20:36:28.832Z,5.20
2018-03-26T20:38:57.076Z,5.20
2018-03-26T20:41:25.218Z,5.20
2018-03-26T20:56:48.389Z,4.70
2018-03-26T20:59:16.541Z,4.70
2018-03-26T21:01:44.687Z,4.70
2018-03-26T21:04:12.831Z,4.80
2018-03-26T21:06:41.583Z,4.90
2018-03-26T21:09:09.711Z,4.90
2018-03-26T21:11:37.890Z,5.00
2018-03-26T21:14:06.005Z,5.10
2018-03-26T21:16:34.147Z,5.10
2018-03-26T21:19:02.311Z,5.20
2018-03-26T21:21:38.724Z,5.20
2018-03-26T21:24:07.712Z,5.30
2018-03-26T21:26:35.888Z,5.30
2018-03-26T21:29:04.010Z,5.30
2018-03-26T21:31:32.851Z,5.40
2018-03-26T21:34:00.973Z,5.40
2018-03-26T21:36:29.096Z,5.40
2018-03-26T21:39:01.167Z,5.50
2018-03-26T21:41:29.297Z,5.50
2018-03-26T21:43:57.808Z,5.60
2018-03-26T21:46:34.219Z,5.60
2018-03-26T21:49:02.395Z,5.60
2018-03-26T21:51:31.106Z,5.60
2018-03-26T21:53:59.250Z,5.60
2018-03-26T21:56:27.422Z,5.60
2018-03-26T21:58:59.532Z,5.60
2018-03-26T22:01:27.734Z,5.60
2018-03-26T22:03:55.967Z,5.60
2018-03-26T22:06:24.355Z,5.60
2018-03-26T22:08:52.605Z,5.60
2018-03-26T22:11:20.844Z,5.60
2018-03-26T22:13:49.015Z,5.60
2018-03-26T22:16:17.340Z,5.60
2018-03-26T22:18:45.556Z,5.60
2018-03-26T22:21:13.836Z,5.60
2018-03-26T22:23:42.050Z,5.60
2018-03-26T22:26:10.279Z,5.60
2018-03-26T22:28:39.181Z,5.60
2018-03-26T22:31:07.418Z,5.60
2018-03-26T22:33:35.625Z,5.60
2018-03-26T22:36:04.557Z,5.60
2018-03-26T22:38:32.696Z,5.60
2018-03-26T22:41:02.006Z,5.60
2018-03-26T22:43:34.947Z,5.60
2018-03-26T22:46:03.099Z,5.60
2018-03-26T22:48:37.190Z,5.50
2018-03-26T22:51:05.335Z,5.50
2018-03-26T22:53:33.490Z,5.50
2018-03-26T22:56:01.630Z,5.50
2018-03-26T22:58:34.421Z,5.40
2018-03-26T23:01:02.508Z,5.40
2018-03-26T23:03:30.627Z,5.30
2018-03-26T23:06:02.752Z,5.30
2018-03-26T23:08:31.658Z,5.30
2018-03-26T23:11:00.092Z,5.30
2018-03-26T23:13:28.827Z,5.30
2018-03-26T23:15:56.952Z,5.30
2018-03-26T23:18:25.102Z,5.30
2018-03-26T23:20:53.224Z,5.30
2018-03-26T23:23:21.428Z,5.30
2018-03-26T23:25:49.719Z,5.30
2018-03-26T23:28:17.991Z,5.30
2018-03-26T23:30:46.306Z,5.30
2018-03-26T23:33:14.676Z,5.40
2018-03-26T23:35:42.824Z,5.30
2018-03-26T23:38:11.132Z,5.30
2018-03-26T23:40:39.884Z,5.30
2018-03-26T23:43:08.016Z,5.30
2018-03-26T23:45:36.722Z,5.30
2018-03-26T23:48:05.192Z,5.30
2018-03-26T23:50:33.307Z,5.30
2018-03-26T23:53:01.434Z,5.30
2018-03-26T23:55:29.565Z,5.30
2018-03-26T23:57:57.796Z,5.30
